Time;durP1;ratioP1;P1;durP2;ratioP2;P2;SDS_P1;SDS_P2;PMS_P1;PMS_P2;Temp;Humidity;BMP_temperature;BMP_pressure;BME280_temperature;BME280_humidity;BME280_pressure;Samples;Min_cycle;Max_cycle;Signal;HPM_P1;HPM_P2
2023/07/06 00:01:39;;;;;;;10.55;2.45;;;;;;;;;;4918689;29;20039;-81
2023/07/06 00:04:05;;;;;;;6.90;2.92;;;;;;;;;;4921012;29;20028;-83
2023/07/06 00:06:32;;;;;;;5.30;2.30;;;;;;;;;;4916090;29;20036;-80
2023/07/06 00:08:58;;;;;;;9.43;2.30;;;;;;;;;;4916006;29;20042;-82
2023/07/06 00:11:23;;;;;;;5.82;2.63;;;;;;;;;;4916117;29;20041;-81
2023/07/06 00:13:49;;;;;;;6.80;2.58;;;;;;;;;;4922204;29;20126;-82
2023/07/06 00:16:15;;;;;;;8.98;2.50;;;;;;;;;;4951176;29;20036;-82
2023/07/06 00:18:41;;;;;;;7.70;2.65;;;;;;;;;;4935991;29;20024;-82
2023/07/06 00:21:08;;;;;;;6.18;2.50;;;;;;;;;;4934369;29;20585;-81
2023/07/06 00:23:33;;;;;;;6.97;2.72;;;;;;;;;;4934282;29;20032;-81
2023/07/06 00:25:59;;;;;;;12.20;2.58;;;;;;;;;;4934570;29;20039;-81
2023/07/06 00:28:28;;;;;;;6.95;2.78;;;;;;;;;;4950708;29;20111;-82
2023/07/06 00:30:57;;;;;;;10.25;2.42;;;;;;;;;;4935485;29;20035;-82
2023/07/06 00:33:23;;;;;;;13.65;3.10;;;;;;;;;;4950513;29;20299;-80
2023/07/06 00:35:49;;;;;;;11.52;2.83;;;;;;;;;;4918803;29;20083;-82
2023/07/06 00:38:17;;;;;;;8.90;2.70;;;;;;;;;;4950542;29;20028;-81
2023/07/06 00:40:44;;;;;;;6.55;2.67;;;;;;;;;;4950079;28;20054;-81
2023/07/06 00:43:23;;;;;;;10.77;3.03;;;;;;;;;;4935618;29;20051;-79
2023/07/06 00:46:01;;;;;;;11.18;2.72;;;;;;;;;;4918765;29;20036;-81
2023/07/06 00:48:26;;;;;;;9.57;2.80;;;;;;;;;;4935613;29;20063;-80
2023/07/06 00:50:53;;;;;;;11.05;2.70;;;;;;;;;;4925263;29;20047;-82
2023/07/06 00:53:19;;;;;;;10.65;2.47;;;;;;;;;;4931255;29;20120;-80
2023/07/06 00:55:47;;;;;;;6.80;2.67;;;;;;;;;;4916729;29;20028;-81
2023/07/06 00:58:35;;;;;;;10.48;2.70;;;;;;;;;;4930931;29;20369;-80
2023/07/06 01:01:03;;;;;;;4.57;2.38;;;;;;;;;;4908506;29;20036;-81
2023/07/06 01:03:29;;;;;;;4.10;1.98;;;;;;;;;;4931406;29;20055;-80
2023/07/06 01:05:58;;;;;;;6.40;2.53;;;;;;;;;;4916286;29;20106;-80
2023/07/06 01:08:25;;;;;;;7.00;2.55;;;;;;;;;;4916343;29;20056;-80
2023/07/06 01:10:52;;;;;;;4.38;2.13;;;;;;;;;;4915208;29;20036;-81
2023/07/06 01:13:19;;;;;;;8.50;2.35;;;;;;;;;;4930760;29;20062;-81
2023/07/06 01:16:05;;;;;;;5.47;1.90;;;;;;;;;;4884124;29;20028;-81
2023/07/06 01:18:39;;;;;;;4.28;2.03;;;;;;;;;;4914699;29;20056;-82
2023/07/06 01:21:14;;;;;;;6.25;1.77;;;;;;;;;;4914972;29;20048;-82
2023/07/06 01:24:06;;;;;;;6.43;2.17;;;;;;;;;;4916867;29;20027;-83
2023/07/06 01:26:57;;;;;;;4.90;2.03;;;;;;;;;;4878529;29;20040;-80
2023/07/06 01:29:36;;;;;;;6.45;2.33;;;;;;;;;;4914157;29;20127;-82
2023/07/06 01:32:05;;;;;;;5.73;2.13;;;;;;;;;;4920273;29;20032;-79
2023/07/06 01:34:36;;;;;;;6.47;1.90;;;;;;;;;;4928641;29;20064;-81
2023/07/06 01:37:22;;;;;;;8.45;2.08;;;;;;;;;;4932801;29;20033;-79
2023/07/06 01:39:48;;;;;;;4.75;2.05;;;;;;;;;;4932883;29;20034;-79
2023/07/06 01:42:27;;;;;;;7.32;2.33;;;;;;;;;;4928964;29;20098;-78
2023/07/06 01:44:56;;;;;;;7.63;1.95;;;;;;;;;;4930445;29;20087;-80
2023/07/06 01:47:22;;;;;;;5.80;2.58;;;;;;;;;;4929179;29;20028;-81
2023/07/06 01:49:51;;;;;;;3.50;1.52;;;;;;;;;;4934341;29;20062;-80
2023/07/06 01:52:20;;;;;;;6.65;2.03;;;;;;;;;;4954573;29;20019;-80
2023/07/06 01:54:54;;;;;;;4.78;2.03;;;;;;;;;;4956254;29;20024;-81
2023/07/06 01:57:27;;;;;;;4.72;1.85;;;;;;;;;;4932414;29;20088;-80
2023/07/06 01:59:55;;;;;;;5.35;1.90;;;;;;;;;;4957736;28;20026;-79
2023/07/06 02:02:21;;;;;;;4.80;1.73;;;;;;;;;;4942127;29;20173;-81
2023/07/06 02:04:47;;;;;;;6.28;1.92;;;;;;;;;;4939998;29;20049;-81
2023/07/06 02:07:16;;;;;;;5.57;1.85;;;;;;;;;;4934079;29;20036;-80
2023/07/06 02:09:43;;;;;;;9.07;2.15;;;;;;;;;;4935097;29;20035;-80
2023/07/06 02:12:08;;;;;;;3.83;1.75;;;;;;;;;;4934997;29;20111;-83
2023/07/06 02:14:34;;;;;;;3.83;1.67;;;;;;;;;;4950201;29;20172;-79
2023/07/06 02:17:02;;;;;;;6.30;2.05;;;;;;;;;;4936160;29;20035;-81
2023/07/06 02:19:27;;;;;;;5.05;1.90;;;;;;;;;;4934756;29;20040;-79
2023/07/06 02:21:53;;;;;;;4.93;1.88;;;;;;;;;;4935426;29;20032;-79
2023/07/06 02:24:18;;;;;;;5.78;2.85;;;;;;;;;;4935826;29;20035;-81
2023/07/06 02:26:44;;;;;;;4.68;2.08;;;;;;;;;;4936353;29;20058;-82
2023/07/06 02:29:10;;;;;;;6.07;1.80;;;;;;;;;;4949640;29;20038;-80
2023/07/06 02:31:35;;;;;;;3.60;1.70;;;;;;;;;;4934111;29;20110;-80
2023/07/06 02:34:01;;;;;;;4.93;1.63;;;;;;;;;;4949036;29;20426;-82
2023/07/06 02:36:26;;;;;;;4.38;1.95;;;;;;;;;;4934599;29;20035;-81
2023/07/06 02:38:52;;;;;;;5.35;2.20;;;;;;;;;;4934574;29;20027;-80
2023/07/06 02:41:18;;;;;;;5.32;2.05;;;;;;;;;;4934129;29;20079;-81
2023/07/06 02:43:43;;;;;;;5.45;1.83;;;;;;;;;;4934508;29;20031;-81
2023/07/06 02:46:09;;;;;;;9.10;2.67;;;;;;;;;;4950679;28;20035;-80
2023/07/06 02:48:34;;;;;;;5.38;2.10;;;;;;;;;;4952699;29;20028;-82
2023/07/06 02:51:00;;;;;;;5.82;2.28;;;;;;;;;;4935908;29;20032;-82
2023/07/06 02:53:27;;;;;;;5.70;1.83;;;;;;;;;;4952322;29;20480;-80
2023/07/06 02:55:53;;;;;;;3.67;1.80;;;;;;;;;;4936797;29;20027;-82
2023/07/06 02:58:18;;;;;;;5.88;2.40;;;;;;;;;;4950513;29;20026;-83
2023/07/06 03:00:47;;;;;;;7.65;2.25;;;;;;;;;;4933771;29;20116;-81
2023/07/06 03:03:14;;;;;;;3.95;1.67;;;;;;;;;;4917673;29;20035;-82
2023/07/06 03:05:42;;;;;;;4.80;2.20;;;;;;;;;;4918439;29;20067;-80
2023/07/06 03:08:08;;;;;;;4.03;1.90;;;;;;;;;;4919430;29;20048;-80
2023/07/06 03:10:33;;;;;;;5.63;2.20;;;;;;;;;;4902099;29;20075;-80
2023/07/06 03:13:01;;;;;;;5.55;1.80;;;;;;;;;;4918205;29;20036;-82
2023/07/06 03:15:28;;;;;;;6.10;1.73;;;;;;;;;;4918589;29;20031;-83
2023/07/06 03:17:54;;;;;;;4.38;1.70;;;;;;;;;;4915716;29;20050;-81
2023/07/06 03:20:20;;;;;;;5.20;1.80;;;;;;;;;;4919912;29;20487;-81
2023/07/06 03:22:48;;;;;;;4.70;2.03;;;;;;;;;;4951688;29;20028;-81
2023/07/06 03:25:18;;;;;;;6.28;1.60;;;;;;;;;;4952083;29;20114;-82
2023/07/06 03:27:46;;;;;;;10.90;2.13;;;;;;;;;;4937370;29;20036;-80
2023/07/06 03:30:12;;;;;;;5.53;2.00;;;;;;;;;;4951898;28;20455;-80
2023/07/06 03:32:38;;;;;;;8.68;2.92;;;;;;;;;;4936682;29;20131;-80
2023/07/06 03:35:04;;;;;;;6.72;1.95;;;;;;;;;;4935592;29;20110;-82
2023/07/06 03:37:30;;;;;;;6.78;1.80;;;;;;;;;;4951702;29;20027;-80
2023/07/06 03:39:55;;;;;;;5.82;2.22;;;;;;;;;;4935729;29;20055;-81
2023/07/06 03:42:21;;;;;;;4.55;2.10;;;;;;;;;;4936513;29;20023;-80
2023/07/06 03:44:46;;;;;;;5.45;2.03;;;;;;;;;;4936691;29;20032;-79
2023/07/06 03:47:13;;;;;;;4.03;1.77;;;;;;;;;;4935528;29;20406;-81
2023/07/06 03:49:39;;;;;;;5.88;1.80;;;;;;;;;;4936278;29;20050;-81
2023/07/06 03:52:04;;;;;;;4.65;1.63;;;;;;;;;;4917316;29;20028;-82
2023/07/06 03:54:31;;;;;;;7.10;1.95;;;;;;;;;;4932276;29;20036;-81
2023/07/06 03:56:57;;;;;;;5.07;2.00;;;;;;;;;;4931887;29;20079;-82
2023/07/06 03:59:23;;;;;;;6.15;1.77;;;;;;;;;;4916011;29;20035;-81
2023/07/06 04:01:49;;;;;;;5.22;1.83;;;;;;;;;;4916148;29;20531;-80
2023/07/06 04:04:16;;;;;;;7.20;2.13;;;;;;;;;;4916295;29;20131;-82
2023/07/06 04:06:41;;;;;;;4.38;1.70;;;;;;;;;;4936516;29;20055;-81
2023/07/06 04:09:11;;;;;;;6.97;2.25;;;;;;;;;;4935865;29;20087;-81
2023/07/06 04:11:37;;;;;;;6.75;2.03;;;;;;;;;;4936413;29;20168;-81
2023/07/06 04:14:03;;;;;;;5.38;1.73;;;;;;;;;;4936824;29;20509;-82
2023/07/06 04:16:28;;;;;;;6.00;2.22;;;;;;;;;;4937476;29;20039;-81
2023/07/06 04:18:55;;;;;;;6.68;2.17;;;;;;;;;;4937791;29;20419;-81
2023/07/06 04:21:22;;;;;;;6.20;1.77;;;;;;;;;;4945449;29;20039;-80
2023/07/06 04:23:48;;;;;;;5.25;2.00;;;;;;;;;;4949125;29;20043;-82
2023/07/06 04:26:14;;;;;;;4.53;2.10;;;;;;;;;;4940905;29;20031;-81
2023/07/06 04:28:40;;;;;;;8.90;2.10;;;;;;;;;;4940613;29;20032;-81
2023/07/06 04:31:06;;;;;;;6.90;1.77;;;;;;;;;;4953507;29;20059;-81
2023/07/06 04:33:32;;;;;;;5.82;2.00;;;;;;;;;;4952961;29;20066;-82
2023/07/06 04:35:58;;;;;;;4.47;2.03;;;;;;;;;;4950606;29;20036;-82
2023/07/06 04:38:29;;;;;;;8.43;2.22;;;;;;;;;;4936119;29;20038;-80
2023/07/06 04:40:55;;;;;;;5.22;2.10;;;;;;;;;;4936218;29;20056;-82
2023/07/06 04:43:21;;;;;;;7.40;2.05;;;;;;;;;;4954114;29;20035;-81
2023/07/06 04:45:47;;;;;;;6.00;2.38;;;;;;;;;;4922132;29;20063;-80
2023/07/06 04:48:12;;;;;;;6.18;2.00;;;;;;;;;;4938493;29;20039;-80
2023/07/06 04:50:38;;;;;;;6.72;2.00;;;;;;;;;;4947604;29;20039;-81
2023/07/06 04:53:07;;;;;;;5.20;1.85;;;;;;;;;;4936203;29;20509;-80
2023/07/06 04:55:33;;;;;;;6.72;2.10;;;;;;;;;;4936119;29;20036;-81
2023/07/06 04:57:59;;;;;;;7.10;1.85;;;;;;;;;;4934362;29;20042;-83
2023/07/06 05:00:26;;;;;;;8.13;1.80;;;;;;;;;;4950032;28;20107;-80
2023/07/06 05:02:52;;;;;;;3.65;1.83;;;;;;;;;;4933793;29;20039;-80
2023/07/06 05:05:18;;;;;;;5.43;1.58;;;;;;;;;;4935321;29;20035;-80
2023/07/06 05:07:46;;;;;;;7.95;2.20;;;;;;;;;;4925020;29;20043;-80
2023/07/06 05:10:11;;;;;;;9.40;2.20;;;;;;;;;;4914836;29;20564;-80
2023/07/06 05:12:39;;;;;;;5.03;1.83;;;;;;;;;;4916115;29;20063;-81
2023/07/06 05:15:05;;;;;;;7.55;2.00;;;;;;;;;;4914444;29;20411;-81
2023/07/06 05:17:31;;;;;;;6.32;1.90;;;;;;;;;;4900068;29;20036;-81
2023/07/06 05:19:58;;;;;;;5.22;2.05;;;;;;;;;;4898823;29;20083;-83
2023/07/06 05:22:24;;;;;;;5.93;1.90;;;;;;;;;;4914110;29;20124;-82
2023/07/06 05:24:49;;;;;;;8.48;2.22;;;;;;;;;;4914194;29;20547;-80
2023/07/06 05:27:15;;;;;;;4.20;1.83;;;;;;;;;;4915384;29;20441;-81
2023/07/06 05:29:40;;;;;;;5.65;1.63;;;;;;;;;;4914167;29;20149;-81
2023/07/06 05:32:07;;;;;;;6.22;1.88;;;;;;;;;;4898410;29;20043;-82
2023/07/06 05:34:33;;;;;;;3.78;1.83;;;;;;;;;;4914459;29;20036;-81
2023/07/06 05:36:59;;;;;;;4.47;1.90;;;;;;;;;;4915868;29;20032;-82
2023/07/06 05:39:24;;;;;;;5.82;2.15;;;;;;;;;;4915041;29;20111;-82
2023/07/06 05:41:50;;;;;;;5.60;1.98;;;;;;;;;;4914405;29;20032;-82
2023/07/06 05:44:16;;;;;;;6.30;2.00;;;;;;;;;;4916777;29;20036;-82
2023/07/06 05:46:41;;;;;;;7.85;1.92;;;;;;;;;;4919989;29;20028;-81
2023/07/06 05:49:07;;;;;;;5.70;1.70;;;;;;;;;;4926039;29;20388;-80
2023/07/06 05:51:32;;;;;;;6.07;2.00;;;;;;;;;;4925489;29;20028;-82
2023/07/06 05:53:58;;;;;;;6.82;1.90;;;;;;;;;;4927636;29;20126;-80
2023/07/06 05:56:24;;;;;;;5.82;1.88;;;;;;;;;;4934050;29;20558;-81
2023/07/06 05:58:51;;;;;;;4.53;1.70;;;;;;;;;;4939310;29;20028;-82
2023/07/06 06:01:22;;;;;;;5.28;2.05;;;;;;;;;;4928733;29;20496;-80
2023/07/06 06:03:47;;;;;;;7.88;1.80;;;;;;;;;;4925546;29;20079;-82
2023/07/06 06:06:13;;;;;;;4.28;1.60;;;;;;;;;;4915716;29;20477;-81
2023/07/06 06:08:38;;;;;;;5.63;2.53;;;;;;;;;;4931235;29;20044;-82
2023/07/06 06:11:04;;;;;;;9.70;1.90;;;;;;;;;;4934757;29;20036;-80
2023/07/06 06:13:30;;;;;;;7.43;2.08;;;;;;;;;;4933675;29;20511;-80
2023/07/06 06:15:57;;;;;;;5.05;1.77;;;;;;;;;;4896671;29;1118966;-81
2023/07/06 06:18:22;;;;;;;6.75;1.70;;;;;;;;;;4936241;29;20028;-82
2023/07/06 06:20:48;;;;;;;5.03;1.92;;;;;;;;;;4919257;29;20634;-80
2023/07/06 06:23:15;;;;;;;5.78;1.80;;;;;;;;;;4920589;29;20027;-82
2023/07/06 06:25:41;;;;;;;3.83;1.73;;;;;;;;;;4919432;29;20032;-81
2023/07/06 06:28:09;;;;;;;3.85;1.73;;;;;;;;;;4919785;29;20107;-81
2023/07/06 06:30:35;;;;;;;6.97;1.73;;;;;;;;;;4919232;29;20028;-79
2023/07/06 06:33:01;;;;;;;6.43;1.50;;;;;;;;;;4936581;29;20033;-81
2023/07/06 06:35:28;;;;;;;6.18;1.50;;;;;;;;;;4904718;29;20135;-80
2023/07/06 06:37:54;;;;;;;4.32;1.70;;;;;;;;;;4904628;29;20034;-82
2023/07/06 06:40:20;;;;;;;7.03;1.65;;;;;;;;;;4921350;29;20510;-80
2023/07/06 06:42:48;;;;;;;4.88;1.70;;;;;;;;;;4918344;29;20099;-79
2023/07/06 06:45:13;;;;;;;7.70;2.90;;;;;;;;;;4919884;29;20036;-81
2023/07/06 06:47:39;;;;;;;5.57;1.70;;;;;;;;;;4918362;29;20395;-81
2023/07/06 06:50:13;;;;;;;6.20;1.85;;;;;;;;;;4919211;29;20024;-81
2023/07/06 06:52:40;;;;;;;7.32;1.77;;;;;;;;;;4920881;29;20039;-80
2023/07/06 06:55:06;;;;;;;5.18;1.40;;;;;;;;;;4919358;29;20596;-79
2023/07/06 06:57:32;;;;;;;6.90;1.55;;;;;;;;;;4935000;29;20032;-80
2023/07/06 06:59:59;;;;;;;5.95;1.55;;;;;;;;;;4935123;29;20046;-81
2023/07/06 07:02:25;;;;;;;4.68;1.58;;;;;;;;;;4925939;29;20040;-80
2023/07/06 07:04:52;;;;;;;6.78;1.58;;;;;;;;;;4944796;29;20059;-81
2023/07/06 07:07:17;;;;;;;3.20;1.23;;;;;;;;;;4930697;29;20035;-79
2023/07/06 07:09:44;;;;;;;3.15;1.23;;;;;;;;;;4945517;29;20388;-80
2023/07/06 07:12:10;;;;;;;5.72;1.40;;;;;;;;;;4945636;29;20043;-81
2023/07/06 07:14:37;;;;;;;3.92;1.50;;;;;;;;;;4957165;29;20031;-82
2023/07/06 07:17:04;;;;;;;5.35;1.50;;;;;;;;;;4939918;29;20035;-81
2023/07/06 07:19:30;;;;;;;4.30;1.60;;;;;;;;;;4953325;29;20028;-81
2023/07/06 07:22:00;;;;;;;7.20;1.63;;;;;;;;;;4951877;29;20034;-80
2023/07/06 07:24:26;;;;;;;4.85;1.40;;;;;;;;;;4938228;29;20035;-81
2023/07/06 07:26:51;;;;;;;4.03;1.92;;;;;;;;;;4952807;29;20070;-82
2023/07/06 07:29:17;;;;;;;3.42;1.33;;;;;;;;;;4953603;29;20036;-82
2023/07/06 07:31:43;;;;;;;4.60;1.50;;;;;;;;;;4937181;29;20032;-81
2023/07/06 07:34:09;;;;;;;4.15;1.30;;;;;;;;;;4936556;29;20380;-81
2023/07/06 07:36:35;;;;;;;3.58;1.30;;;;;;;;;;4951906;29;20032;-80
2023/07/06 07:39:01;;;;;;;5.32;1.40;;;;;;;;;;4938012;29;20322;-81
2023/07/06 07:41:26;;;;;;;3.58;1.25;;;;;;;;;;4953189;29;20027;-81
2023/07/06 07:43:52;;;;;;;4.68;1.60;;;;;;;;;;4936406;29;20036;-80
2023/07/06 07:46:19;;;;;;;5.65;1.50;;;;;;;;;;4936066;29;20036;-82
2023/07/06 07:48:47;;;;;;;6.10;2.00;;;;;;;;;;4937165;29;20385;-81
2023/07/06 07:51:14;;;;;;;5.60;1.80;;;;;;;;;;4924408;29;20111;-81
2023/07/06 07:53:40;;;;;;;5.35;1.67;;;;;;;;;;4917228;29;20040;-81
2023/07/06 07:56:06;;;;;;;4.18;1.77;;;;;;;;;;4918196;29;20043;-81
2023/07/06 07:58:33;;;;;;;3.33;1.40;;;;;;;;;;4918220;29;20036;-80
2023/07/06 08:01:00;;;;;;;6.38;1.63;;;;;;;;;;4918062;29;20095;-82
2023/07/06 08:03:27;;;;;;;3.40;1.30;;;;;;;;;;4917865;29;20031;-81
2023/07/06 08:05:56;;;;;;;6.82;1.50;;;;;;;;;;4917663;29;20555;-81
2023/07/06 08:08:23;;;;;;;4.25;1.27;;;;;;;;;;4917497;29;20036;-80
2023/07/06 08:10:55;;;;;;;4.65;1.50;;;;;;;;;;4900825;29;20753;-82
2023/07/06 08:13:21;;;;;;;3.38;1.48;;;;;;;;;;4901079;29;20079;-80
2023/07/06 08:15:47;;;;;;;5.97;1.45;;;;;;;;;;4918062;29;20056;-82
2023/07/06 08:18:13;;;;;;;6.45;1.20;;;;;;;;;;4917195;29;20437;-81
2023/07/06 08:20:39;;;;;;;3.25;1.38;;;;;;;;;;4917907;29;20103;-80
2023/07/06 08:23:07;;;;;;;2.20;0.90;;;;;;;;;;4917338;29;20058;-83
2023/07/06 08:25:37;;;;;;;5.85;1.60;;;;;;;;;;4915826;29;20131;-81
2023/07/06 08:28:03;;;;;;;4.03;1.23;;;;;;;;;;4900609;29;20400;-82
2023/07/06 08:30:29;;;;;;;4.38;1.58;;;;;;;;;;4918029;29;20036;-83
2023/07/06 08:32:55;;;;;;;3.25;1.27;;;;;;;;;;4917424;29;20036;-83
2023/07/06 08:35:21;;;;;;;5.97;1.55;;;;;;;;;;4917033;29;20040;-83
2023/07/06 08:37:46;;;;;;;3.60;1.33;;;;;;;;;;4917512;29;20043;-82
2023/07/06 08:40:14;;;;;;;3.20;1.40;;;;;;;;;;4917169;29;20028;-81
2023/07/06 08:42:42;;;;;;;3.72;1.30;;;;;;;;;;4916751;29;20032;-81
2023/07/06 08:45:13;;;;;;;2.58;1.17;;;;;;;;;;4927076;29;20036;-81
2023/07/06 08:47:39;;;;;;;6.82;1.92;;;;;;;;;;4949750;28;20040;-81
2023/07/06 08:50:08;;;;;;;3.47;1.30;;;;;;;;;;4959482;28;20032;-82
2023/07/06 08:52:34;;;;;;;;;;;;;;;;;;4935507;29;20082;-82
2023/07/06 08:54:59;;;;;;;8.00;1.35;;;;;;;;;;4933487;29;19918;-83
2023/07/06 08:57:26;;;;;;;5.45;1.63;;;;;;;;;;4938589;29;20145;-81
2023/07/06 08:59:54;;;;;;;4.93;1.35;;;;;;;;;;4948521;28;20031;-84
2023/07/06 09:02:24;;;;;;;3.60;1.45;;;;;;;;;;4935676;29;20028;-83
2023/07/06 09:04:51;;;;;;;3.80;1.17;;;;;;;;;;4922308;29;20040;-83
2023/07/06 09:07:18;;;;;;;5.80;1.30;;;;;;;;;;4915005;29;20125;-83
2023/07/06 09:09:45;;;;;;;3.88;1.30;;;;;;;;;;4915023;29;20407;-83
2023/07/06 09:12:18;;;;;;;3.03;1.20;;;;;;;;;;4934555;29;20507;-83
2023/07/06 09:14:48;;;;;;;3.63;1.40;;;;;;;;;;4933297;29;20492;-83
2023/07/06 09:17:17;;;;;;;4.38;1.60;;;;;;;;;;4931309;29;20123;-82
2023/07/06 09:19:42;;;;;;;;;;;;;;;;;;4934196;29;20026;-84
2023/07/06 09:22:09;;;;;;;3.25;1.10;;;;;;;;;;4927080;29;19919;-82
2023/07/06 09:24:36;;;;;;;3.00;1.02;;;;;;;;;;4921486;29;20062;-82
2023/07/06 09:27:08;;;;;;;4.35;1.23;;;;;;;;;;4926867;29;20028;-83
2023/07/06 09:29:37;;;;;;;4.60;1.50;;;;;;;;;;4914173;29;20056;-84
2023/07/06 09:32:22;;;;;;;4.80;1.30;;;;;;;;;;4965633;29;20046;-85
2023/07/06 09:34:49;;;;;;;6.53;1.30;;;;;;;;;;4941538;28;20059;-84
2023/07/06 09:37:17;;;;;;;4.40;1.80;;;;;;;;;;4949345;29;20042;-86
2023/07/06 09:39:56;;;;;;;9.57;1.80;;;;;;;;;;4975895;29;20023;-83
2023/07/06 09:42:22;;;;;;;3.83;1.33;;;;;;;;;;4964845;28;20143;-84
2023/07/06 09:44:48;;;;;;;3.88;1.42;;;;;;;;;;4960769;29;20106;-82
2023/07/06 09:47:15;;;;;;;5.38;2.00;;;;;;;;;;4971771;28;20051;-83
2023/07/06 09:49:59;;;;;;;7.38;2.03;;;;;;;;;;4975138;29;20019;-84
2023/07/06 09:52:26;;;;;;;4.97;1.67;;;;;;;;;;4955339;29;20115;-83
2023/07/06 09:54:51;;;;;;;4.30;1.30;;;;;;;;;;4950411;29;20061;-84
2023/07/06 09:57:17;;;;;;;3.85;1.20;;;;;;;;;;4937079;29;20480;-80
2023/07/06 09:59:52;;;;;;;9.40;4.55;;;;;;;;;;4948816;29;20028;-82
2023/07/06 10:02:36;;;;;;;58.30;32.90;;;;;;;;;;4925382;29;20104;-80
2023/07/06 10:05:01;;;;;;;39.03;23.92;;;;;;;;;;4939153;29;20066;-79
2023/07/06 10:07:30;;;;;;;4.93;2.58;;;;;;;;;;4938623;29;20043;-79
2023/07/06 10:10:14;;;;;;;3.28;1.27;;;;;;;;;;4923499;29;20035;-87
2023/07/06 10:12:44;;;;;;;3.63;1.48;;;;;;;;;;4908434;29;20111;-87
2023/07/06 10:15:18;;;;;;;3.00;1.38;;;;;;;;;;4922073;29;20036;-86
2023/07/06 10:17:47;;;;;;;6.65;2.00;;;;;;;;;;4917900;29;20099;-85
2023/07/06 10:20:17;;;;;;;2.67;1.30;;;;;;;;;;4942544;29;20028;-86
2023/07/06 10:22:47;;;;;;;5.50;1.60;;;;;;;;;;4959129;29;20407;-87
2023/07/06 10:25:28;;;;;;;3.28;1.40;;;;;;;;;;4958362;29;20070;-87
2023/07/06 10:27:58;;;;;;;7.05;2.35;;;;;;;;;;4927238;29;20040;-88
2023/07/06 10:30:35;;;;;;;4.10;1.50;;;;;;;;;;4914522;29;20058;-86
2023/07/06 10:33:07;;;;;;;4.18;1.60;;;;;;;;;;4932755;29;20074;-88
2023/07/06 10:35:35;;;;;;;4.30;1.50;;;;;;;;;;4939232;29;20068;-86
2023/07/06 10:38:09;;;;;;;4.18;1.65;;;;;;;;;;4916428;29;20130;-86
2023/07/06 10:40:37;;;;;;;8.13;1.60;;;;;;;;;;4942526;29;20035;-88
2023/07/06 10:43:12;;;;;;;6.57;1.53;;;;;;;;;;4955662;29;20032;-87
2023/07/06 10:45:44;;;;;;;3.95;1.40;;;;;;;;;;4927855;29;20282;-88
2023/07/06 10:48:13;;;;;;;;;;;;;;;;;;4956588;29;20039;-88
2023/07/06 10:50:49;;;;;;;2.92;1.40;;;;;;;;;;4910664;29;20373;-88
2023/07/06 10:53:15;;;;;;;4.65;2.22;;;;;;;;;;4919043;29;20095;-88
2023/07/06 10:55:40;;;;;;;3.47;1.65;;;;;;;;;;4917911;29;20118;-79
2023/07/06 10:58:24;;;;;;;179.05;134.77;;;;;;;;;;4922813;29;20500;-79
2023/07/06 11:00:51;;;;;;;9.43;5.07;;;;;;;;;;4951748;28;20036;-78
2023/07/06 11:03:20;;;;;;;10.25;5.32;;;;;;;;;;4926905;29;20182;-80
2023/07/06 11:06:06;;;;;;;11.70;6.35;;;;;;;;;;4918655;29;20060;-79
2023/07/06 11:08:51;;;;;;;6.57;3.28;;;;;;;;;;4918090;29;20052;-78
2023/07/06 11:11:18;;;;;;;3.97;1.30;;;;;;;;;;4933763;29;20040;-85
2023/07/06 11:13:51;;;;;;;3.72;1.30;;;;;;;;;;4929217;29;20036;-84
2023/07/06 11:16:22;;;;;;;3.08;1.10;;;;;;;;;;4969176;29;20503;-86
2023/07/06 11:18:51;;;;;;;2.20;0.93;;;;;;;;;;4952747;29;20032;-83
2023/07/06 11:21:16;;;;;;;4.40;1.33;;;;;;;;;;4937111;29;20024;-82
2023/07/06 11:23:45;;;;;;;5.43;1.60;;;;;;;;;;4897738;29;20067;-85
2023/07/06 11:26:20;;;;;;;6.68;1.40;;;;;;;;;;4908356;29;20036;-85
2023/07/06 11:28:47;;;;;;;7.05;1.80;;;;;;;;;;4919462;29;20495;-86
2023/07/06 11:31:25;;;;;;;3.78;1.50;;;;;;;;;;4920375;29;20071;-83
2023/07/06 11:33:55;;;;;;;3.15;1.17;;;;;;;;;;4923836;29;20055;-85
2023/07/06 11:36:39;;;;;;;3.92;1.58;;;;;;;;;;4923468;29;20024;-84
2023/07/06 11:39:08;;;;;;;2.30;1.10;;;;;;;;;;4939132;29;20039;-84
2023/07/06 11:41:37;;;;;;;3.65;1.40;;;;;;;;;;4895028;29;20040;-85
2023/07/06 11:44:03;;;;;;;3.42;1.70;;;;;;;;;;4939090;29;20032;-84
2023/07/06 11:46:36;;;;;;;2.95;1.33;;;;;;;;;;4940272;29;20034;-84
2023/07/06 11:49:20;;;;;;;4.22;1.20;;;;;;;;;;4894025;29;20043;-85
2023/07/06 11:51:48;;;;;;;4.43;1.40;;;;;;;;;;4895207;29;20043;-84
2023/07/06 11:54:39;;;;;;;9.20;1.75;;;;;;;;;;4927330;29;20042;-84
2023/07/06 11:59:52;;;;;;;3.25;1.40;;;;;;;;;;4944463;29;20507;-85
2023/07/06 12:02:20;;;;;;;2.92;1.27;;;;;;;;;;4925258;29;20043;-84
2023/07/06 12:04:46;;;;;;;3.53;1.30;;;;;;;;;;4938328;29;20519;-84
2023/07/06 12:07:24;;;;;;;5.80;1.30;;;;;;;;;;4915850;29;20056;-85
2023/07/06 12:09:49;;;;;;;4.55;1.50;;;;;;;;;;4926499;23;20056;-77
2023/07/06 12:12:16;;;;;;;5.13;1.58;;;;;;;;;;4972741;28;20039;-77
2023/07/06 12:14:42;;;;;;;6.07;1.40;;;;;;;;;;4955318;28;20039;-78
2023/07/06 12:17:11;;;;;;;4.18;1.85;;;;;;;;;;4954681;28;20031;-78
2023/07/06 12:19:41;;;;;;;3.33;1.30;;;;;;;;;;4959809;28;20531;-78
2023/07/06 12:22:14;;;;;;;5.25;1.48;;;;;;;;;;4993712;28;20034;-77
2023/07/06 12:24:40;;;;;;;4.18;1.20;;;;;;;;;;4993867;28;20022;-76
2023/07/06 12:27:11;;;;;;;2.97;1.10;;;;;;;;;;4992409;28;20045;-77
2023/07/06 12:29:37;;;;;;;3.53;1.25;;;;;;;;;;4992691;28;20482;-75
2023/07/06 12:32:10;;;;;;;4.07;1.30;;;;;;;;;;4993270;28;20038;-77
2023/07/06 12:34:40;;;;;;;4.75;1.52;;;;;;;;;;4993612;28;20125;-78
2023/07/06 12:37:11;;;;;;;3.75;1.20;;;;;;;;;;4992697;28;20027;-76
2023/07/06 12:39:40;;;;;;;5.00;1.33;;;;;;;;;;4993504;28;20486;-77
2023/07/06 12:42:06;;;;;;;4.85;1.27;;;;;;;;;;4993118;28;20084;-77
2023/07/06 12:44:33;;;;;;;4.70;1.52;;;;;;;;;;4991997;28;20026;-77
2023/07/06 12:47:01;;;;;;;4.47;1.40;;;;;;;;;;4992071;28;20038;-77
2023/07/06 12:49:27;;;;;;;;;;;;;;;;;;4994072;28;20042;-77
2023/07/06 12:51:56;;;;;;;4.85;1.67;;;;;;;;;;4976324;28;19956;-78
2023/07/06 12:54:26;;;;;;;3.78;1.30;;;;;;;;;;4976029;28;20030;-77
2023/07/06 12:56:59;;;;;;;4.35;1.20;;;;;;;;;;4982809;28;20029;-76
2023/07/06 12:59:31;;;;;;;3.60;1.25;;;;;;;;;;4972747;28;20031;-76
2023/07/06 13:01:57;;;;;;;3.67;1.20;;;;;;;;;;4973849;28;20553;-76
2023/07/06 13:04:22;;;;;;;3.22;1.40;;;;;;;;;;4972786;28;20023;-76
2023/07/06 13:06:52;;;;;;;4.90;1.25;;;;;;;;;;4972371;28;20030;-77
2023/07/06 13:09:17;;;;;;;6.57;1.45;;;;;;;;;;4956434;28;20486;-77
2023/07/06 13:11:53;;;;;;;4.30;1.30;;;;;;;;;;4973171;28;20081;-78
2023/07/06 13:14:20;;;;;;;3.80;1.25;;;;;;;;;;4972663;28;20045;-77
2023/07/06 13:16:51;;;;;;;4.75;1.40;;;;;;;;;;4973596;28;20030;-78
2023/07/06 13:19:17;;;;;;;3.28;1.38;;;;;;;;;;4973879;28;20128;-77
2023/07/06 13:21:43;;;;;;;4.60;1.80;;;;;;;;;;4945584;28;20494;-77
2023/07/06 13:24:13;;;;;;;3.22;1.30;;;;;;;;;;4993270;28;20481;-77
2023/07/06 13:26:39;;;;;;;5.15;1.50;;;;;;;;;;4993497;28;20090;-77
2023/07/06 13:29:05;;;;;;;8.70;2.38;;;;;;;;;;4992508;28;20038;-77
2023/07/06 13:31:31;;;;;;;5.63;1.48;;;;;;;;;;4992498;28;20538;-77
2023/07/06 13:33:57;;;;;;;3.97;1.48;;;;;;;;;;4992887;28;20030;-78
2023/07/06 13:36:25;;;;;;;2.92;1.10;;;;;;;;;;4991783;28;20396;-77
2023/07/06 13:38:51;;;;;;;4.57;1.63;;;;;;;;;;4994681;28;20102;-79
2023/07/06 13:41:18;;;;;;;5.22;1.63;;;;;;;;;;4994359;28;20065;-77
2023/07/06 13:43:45;;;;;;;3.22;1.50;;;;;;;;;;4992065;28;20118;-77
2023/07/06 13:46:10;;;;;;;7.70;1.50;;;;;;;;;;4990757;28;20194;-77
2023/07/06 13:48:37;;;;;;;5.80;1.40;;;;;;;;;;4990689;28;20034;-77
2023/07/06 13:51:03;;;;;;;4.60;1.57;;;;;;;;;;4992152;28;20076;-77
2023/07/06 13:53:29;;;;;;;3.42;1.50;;;;;;;;;;4992096;28;20490;-77
2023/07/06 13:55:54;;;;;;;5.70;1.42;;;;;;;;;;4989970;28;20374;-77
2023/07/06 13:58:21;;;;;;;3.47;1.42;;;;;;;;;;4973162;28;20535;-77
2023/07/06 14:00:47;;;;;;;5.60;1.63;;;;;;;;;;4972183;28;20097;-75
2023/07/06 14:03:23;;;;;;;2.97;1.27;;;;;;;;;;4973491;28;20058;-77
2023/07/06 14:05:50;;;;;;;3.72;1.20;;;;;;;;;;4972034;28;20031;-76
2023/07/06 14:08:18;;;;;;;6.72;1.77;;;;;;;;;;4972468;28;20042;-78
2023/07/06 14:10:44;;;;;;;5.72;1.38;;;;;;;;;;4972158;28;20042;-76
2023/07/06 14:13:13;;;;;;;6.65;1.40;;;;;;;;;;4972652;28;20039;-75
2023/07/06 14:15:39;;;;;;;6.07;1.50;;;;;;;;;;4972887;28;20027;-75
2023/07/06 14:18:07;;;;;;;4.82;1.92;;;;;;;;;;4985424;28;20030;-77
2023/07/06 14:20:35;;;;;;;3.53;1.75;;;;;;;;;;4993974;28;20018;-77
2023/07/06 14:23:00;;;;;;;6.90;1.30;;;;;;;;;;4992675;28;20113;-76
2023/07/06 14:25:26;;;;;;;3.90;1.38;;;;;;;;;;4990805;28;20109;-75
2023/07/06 14:27:53;;;;;;;4.47;1.55;;;;;;;;;;4992192;28;20474;-78
2023/07/06 14:30:19;;;;;;;5.70;1.80;;;;;;;;;;4991013;28;20030;-77
2023/07/06 14:32:45;;;;;;;5.47;1.67;;;;;;;;;;4991891;28;20027;-78
2023/07/06 14:35:12;;;;;;;5.05;2.22;;;;;;;;;;4992935;28;20054;-77
2023/07/06 14:37:37;;;;;;;7.82;1.60;;;;;;;;;;4991170;28;20065;-77
2023/07/06 14:40:11;;;;;;;3.65;1.60;;;;;;;;;;4991857;28;20393;-77
2023/07/06 14:42:37;;;;;;;8.30;1.48;;;;;;;;;;4992995;28;20486;-77
2023/07/06 14:45:04;;;;;;;6.32;1.70;;;;;;;;;;4993304;28;20113;-78
2023/07/06 14:47:30;;;;;;;4.22;1.48;;;;;;;;;;4975804;28;20042;-77
2023/07/06 14:49:57;;;;;;;3.72;1.50;;;;;;;;;;4975559;28;20479;-77
2023/07/06 14:52:23;;;;;;;2.70;1.20;;;;;;;;;;4975528;28;20054;-78